Time;durP1;ratioP1;P1;durP2;ratioP2;P2;SDS_P1;SDS_P2;PMS_P1;PMS_P2;Temp;Humidity;BMP_temperature;BMP_pressure;BME280_temperature;BME280_humidity;BME280_pressure;Samples;Min_cycle;Max_cycle;Signal;HPM_P1;HPM_P2
2022/04/04 00:01:12;;;;;;;6.23;1.20;;;;;;;;;;5066685;28;20458;-72
2022/04/04 00:03:38;;;;;;;1.70;0.93;;;;;;;;;;5064423;28;20458;-71
2022/04/04 00:06:04;;;;;;;2.20;0.93;;;;;;;;;;5069239;28;20429;-71
2022/04/04 00:08:33;;;;;;;1.60;0.90;;;;;;;;;;5058622;28;20407;-71
2022/04/04 00:10:59;;;;;;;4.90;1.00;;;;;;;;;;5062443;28;20951;-72
2022/04/04 00:13:27;;;;;;;1.40;0.90;;;;;;;;;;5052426;28;20420;-72
2022/04/04 00:15:53;;;;;;;1.50;1.00;;;;;;;;;;5065930;28;20427;-73
2022/04/04 00:18:19;;;;;;;1.50;0.93;;;;;;;;;;5056116;28;20505;-72
2022/04/04 00:20:45;;;;;;;1.80;0.90;;;;;;;;;;5059009;28;20600;-72
2022/04/04 00:23:14;;;;;;;1.60;1.00;;;;;;;;;;5061901;28;20427;-72
2022/04/04 00:25:41;;;;;;;2.93;1.00;;;;;;;;;;5060462;28;20416;-72
2022/04/04 00:28:07;;;;;;;3.80;1.03;;;;;;;;;;5056412;28;20414;-72
2022/04/04 00:30:33;;;;;;;1.90;1.00;;;;;;;;;;5057236;28;20422;-72
2022/04/04 00:32:59;;;;;;;1.83;1.03;;;;;;;;;;5061961;28;20819;-72
2022/04/04 00:35:25;;;;;;;2.03;1.00;;;;;;;;;;5060000;28;20811;-71
2022/04/04 00:37:53;;;;;;;1.90;0.87;;;;;;;;;;5057323;28;20795;-72
2022/04/04 00:40:19;;;;;;;1.30;0.90;;;;;;;;;;5065225;28;20934;-72
2022/04/04 00:42:45;;;;;;;1.60;1.00;;;;;;;;;;5062395;28;20446;-72
2022/04/04 00:45:11;;;;;;;4.70;0.93;;;;;;;;;;5063432;28;20512;-72
2022/04/04 00:47:37;;;;;;;2.60;0.90;;;;;;;;;;5057180;28;20415;-72
2022/04/04 00:50:03;;;;;;;1.30;0.80;;;;;;;;;;5065063;28;20434;-71
2022/04/04 00:52:30;;;;;;;1.40;0.90;;;;;;;;;;5061185;28;20462;-71
2022/04/04 00:54:56;;;;;;;1.90;1.00;;;;;;;;;;5055725;28;20427;-72
2022/04/04 00:57:22;;;;;;;3.40;1.10;;;;;;;;;;5066421;28;20439;-71
2022/04/04 00:59:48;;;;;;;7.23;0.80;;;;;;;;;;5054344;28;20911;-70
2022/04/04 01:02:14;;;;;;;1.63;1.00;;;;;;;;;;5063556;28;20462;-70
2022/04/04 01:04:42;;;;;;;8.40;3.60;;;;;;;;;;5053504;28;20473;-74
2022/04/04 01:07:08;;;;;;;9.93;4.30;;;;;;;;;;5057000;28;20408;-73
2022/04/04 01:09:34;;;;;;;8.50;5.03;;;;;;;;;;5066445;28;20408;-73
2022/04/04 01:12:01;;;;;;;7.23;5.17;;;;;;;;;;5057376;28;20534;-73
2022/04/04 01:14:27;;;;;;;9.80;6.27;;;;;;;;;;5058816;28;20416;-73
2022/04/04 01:16:53;;;;;;;9.90;6.10;;;;;;;;;;5061005;28;20424;-73
2022/04/04 01:19:19;;;;;;;8.83;5.50;;;;;;;;;;5058876;28;20417;-73
2022/04/04 01:21:45;;;;;;;12.60;6.67;;;;;;;;;;5064803;28;20461;-73
2022/04/04 01:24:15;;;;;;;9.07;6.27;;;;;;;;;;5056226;28;20415;-73
2022/04/04 01:26:46;;;;;;;9.10;6.10;;;;;;;;;;5065511;28;20420;-73
2022/04/04 01:29:12;;;;;;;9.33;5.27;;;;;;;;;;5052589;28;20893;-71
2022/04/04 01:31:38;;;;;;;8.80;5.10;;;;;;;;;;5054689;28;20771;-71
2022/04/04 01:34:04;;;;;;;6.10;3.73;;;;;;;;;;5060773;28;20487;-71
2022/04/04 01:36:30;;;;;;;9.70;3.93;;;;;;;;;;5062106;28;20937;-71
2022/04/04 01:38:56;;;;;;;6.20;3.97;;;;;;;;;;5067137;28;20515;-71
2022/04/04 01:41:22;;;;;;;4.83;3.13;;;;;;;;;;5064370;28;20459;-70
2022/04/04 01:43:48;;;;;;;9.27;3.30;;;;;;;;;;5060598;28;20422;-71
2022/04/04 01:46:29;;;;;;;5.00;3.03;;;;;;;;;;5059463;28;20413;-70
2022/04/04 01:48:57;;;;;;;5.23;2.80;;;;;;;;;;5057880;28;20421;-71
2022/04/04 01:51:23;;;;;;;5.53;2.77;;;;;;;;;;5061209;28;21012;-71
2022/04/04 01:53:50;;;;;;;4.80;3.10;;;;;;;;;;5063344;28;20464;-71
2022/04/04 01:56:17;;;;;;;4.40;2.97;;;;;;;;;;5052891;28;20456;-71
2022/04/04 01:58:43;;;;;;;3.33;2.57;;;;;;;;;;5054195;28;20520;-71
2022/04/04 02:01:10;;;;;;;5.10;3.10;;;;;;;;;;5060085;28;20572;-71
2022/04/04 02:03:36;;;;;;;4.70;2.40;;;;;;;;;;5055193;28;20446;-71
2022/04/04 02:06:02;;;;;;;6.10;2.70;;;;;;;;;;5060578;28;20417;-71
2022/04/04 02:08:29;;;;;;;3.20;2.27;;;;;;;;;;5056607;28;20544;-71
2022/04/04 02:10:56;;;;;;;5.80;2.80;;;;;;;;;;5052615;28;20487;-71
2022/04/04 02:13:25;;;;;;;5.00;2.50;;;;;;;;;;5054945;28;20421;-71
2022/04/04 02:15:55;;;;;;;4.13;2.40;;;;;;;;;;5062376;28;20480;-71
2022/04/04 02:18:21;;;;;;;3.57;2.33;;;;;;;;;;5063285;28;20495;-70
2022/04/04 02:20:48;;;;;;;3.17;2.07;;;;;;;;;;5060148;28;20461;-70
2022/04/04 02:23:18;;;;;;;3.00;2.00;;;;;;;;;;5063043;28;20406;-71
2022/04/04 02:25:44;;;;;;;3.70;2.10;;;;;;;;;;5064866;28;20475;-70
2022/04/04 02:28:11;;;;;;;4.40;2.50;;;;;;;;;;5065558;28;20428;-71
2022/04/04 02:30:37;;;;;;;2.93;2.00;;;;;;;;;;5060368;28;20418;-71
2022/04/04 02:33:03;;;;;;;3.80;2.27;;;;;;;;;;5055444;28;20409;-70
2022/04/04 02:35:29;;;;;;;4.20;2.40;;;;;;;;;;5066295;28;20467;-70
2022/04/04 02:37:55;;;;;;;3.17;2.20;;;;;;;;;;5056718;28;20406;-70
2022/04/04 02:40:22;;;;;;;3.40;2.30;;;;;;;;;;5053769;28;20411;-71
2022/04/04 02:42:48;;;;;;;2.70;1.97;;;;;;;;;;5056217;28;20458;-71
2022/04/04 02:45:14;;;;;;;3.20;2.20;;;;;;;;;;5069114;28;20412;-70
2022/04/04 02:47:42;;;;;;;4.67;2.43;;;;;;;;;;5065547;28;20977;-70
2022/04/04 02:50:08;;;;;;;3.27;1.77;;;;;;;;;;5057041;28;20780;-70
2022/04/04 02:52:34;;;;;;;3.00;2.10;;;;;;;;;;5062150;28;20451;-70
2022/04/04 02:56:28;;;;;;;3.37;2.17;;;;;;;;;;5068785;28;20754;-71
2022/04/04 02:57:47;;;;;;;3.50;2.10;;;;;;;;;;5060220;28;20419;-70
2022/04/04 03:00:14;;;;;;;3.90;2.00;;;;;;;;;;5053880;28;20404;-70
2022/04/04 03:02:40;;;;;;;4.27;2.50;;;;;;;;;;5054856;28;20988;-71
2022/04/04 03:05:06;;;;;;;3.20;2.03;;;;;;;;;;5064313;28;20483;-71
2022/04/04 03:07:32;;;;;;;3.07;1.93;;;;;;;;;;5059071;28;20458;-70
2022/04/04 03:09:58;;;;;;;2.30;1.43;;;;;;;;;;5060859;28;20937;-70
2022/04/04 03:12:24;;;;;;;3.50;2.40;;;;;;;;;;5059987;28;20840;-71
2022/04/04 03:14:51;;;;;;;3.37;1.90;;;;;;;;;;5060205;28;20477;-71
2022/04/04 03:17:17;;;;;;;2.70;2.00;;;;;;;;;;5058056;28;20438;-71
2022/04/04 03:19:43;;;;;;;3.10;1.87;;;;;;;;;;5059066;28;20931;-71
2022/04/04 03:22:09;;;;;;;2.90;1.67;;;;;;;;;;5061726;28;20459;-71
2022/04/04 03:24:35;;;;;;;2.17;1.70;;;;;;;;;;5064600;28;20473;-71
2022/04/04 03:27:01;;;;;;;2.83;1.90;;;;;;;;;;5073848;28;20410;-71
2022/04/04 03:29:27;;;;;;;2.60;1.60;;;;;;;;;;5062844;28;20422;-71
2022/04/04 03:31:53;;;;;;;3.00;1.90;;;;;;;;;;5058549;28;20445;-71
2022/04/04 03:34:19;;;;;;;2.50;1.80;;;;;;;;;;5061321;28;20752;-71
2022/04/04 03:36:47;;;;;;;2.50;1.50;;;;;;;;;;5055787;28;20425;-71
2022/04/04 03:39:16;;;;;;;4.30;1.80;;;;;;;;;;5062355;28;20425;-71
2022/04/04 03:41:45;;;;;;;2.60;1.90;;;;;;;;;;5073281;28;20504;-71
2022/04/04 03:44:11;;;;;;;3.00;1.70;;;;;;;;;;5072818;28;20419;-71
2022/04/04 03:46:37;;;;;;;2.80;1.87;;;;;;;;;;5065382;28;20416;-71
2022/04/04 03:49:04;;;;;;;3.33;1.60;;;;;;;;;;5059308;28;20423;-71
2022/04/04 03:51:30;;;;;;;2.47;1.70;;;;;;;;;;5059916;28;20557;-71
2022/04/04 03:53:56;;;;;;;3.53;1.80;;;;;;;;;;5055487;28;20412;-71
2022/04/04 03:56:22;;;;;;;2.87;1.60;;;;;;;;;;5073149;28;20426;-71
2022/04/04 03:58:48;;;;;;;2.87;1.90;;;;;;;;;;5072728;28;20775;-71
2022/04/04 04:01:14;;;;;;;2.80;1.70;;;;;;;;;;5072964;28;20794;-71
2022/04/04 04:03:40;;;;;;;2.07;1.70;;;;;;;;;;5068568;28;20414;-71
2022/04/04 04:06:12;;;;;;;3.20;2.00;;;;;;;;;;5054827;28;20503;-72
2022/04/04 04:08:39;;;;;;;2.80;1.80;;;;;;;;;;5072630;28;20918;-71
2022/04/04 04:11:05;;;;;;;2.57;1.80;;;;;;;;;;5072812;28;20435;-71
2022/04/04 04:13:31;;;;;;;2.77;1.60;;;;;;;;;;5072847;28;20459;-71
2022/04/04 04:15:58;;;;;;;3.87;1.70;;;;;;;;;;5065470;28;20421;-72
2022/04/04 04:18:24;;;;;;;2.73;1.90;;;;;;;;;;5072382;28;20414;-72
2022/04/04 04:20:50;;;;;;;2.00;1.30;;;;;;;;;;5066741;28;20467;-72
2022/04/04 04:23:20;;;;;;;3.80;1.87;;;;;;;;;;5056459;28;20907;-70
2022/04/04 04:25:48;;;;;;;2.40;1.60;;;;;;;;;;5054074;28;20495;-70
2022/04/04 04:28:14;;;;;;;2.47;1.87;;;;;;;;;;5052658;28;20446;-70
2022/04/04 04:30:41;;;;;;;9.23;1.67;;;;;;;;;;5052038;28;20746;-70
2022/04/04 04:33:07;;;;;;;2.97;1.73;;;;;;;;;;5052559;28;20415;-70
2022/04/04 04:35:34;;;;;;;2.73;1.83;;;;;;;;;;5052524;28;20453;-70
2022/04/04 04:38:00;;;;;;;2.80;1.63;;;;;;;;;;5052491;28;20415;-69
2022/04/04 04:40:27;;;;;;;2.37;1.73;;;;;;;;;;5051906;28;20415;-70
2022/04/04 04:42:53;;;;;;;3.93;2.00;;;;;;;;;;5052338;28;20585;-69
2022/04/04 04:45:20;;;;;;;3.80;2.03;;;;;;;;;;5053748;28;20494;-70
2022/04/04 04:47:46;;;;;;;11.40;2.20;;;;;;;;;;5052230;28;20407;-71
2022/04/04 04:50:13;;;;;;;2.30;1.70;;;;;;;;;;5051802;28;20466;-69
2022/04/04 04:52:39;;;;;;;4.20;2.00;;;;;;;;;;5054217;28;20505;-70
2022/04/04 04:55:05;;;;;;;7.50;1.83;;;;;;;;;;5057819;28;20432;-70
2022/04/04 04:57:31;;;;;;;3.63;2.40;;;;;;;;;;5062485;28;20424;-69
2022/04/04 04:59:57;;;;;;;5.17;3.77;;;;;;;;;;5056365;28;20437;-72
2022/04/04 05:02:23;;;;;;;9.47;3.83;;;;;;;;;;5088635;28;21007;-72
2022/04/04 05:04:50;;;;;;;6.00;3.40;;;;;;;;;;5071934;28;20501;-73
2022/04/04 05:07:16;;;;;;;8.43;4.03;;;;;;;;;;5069241;28;20432;-72
2022/04/04 05:09:42;;;;;;;5.50;3.30;;;;;;;;;;5055564;28;20465;-73
2022/04/04 05:12:08;;;;;;;5.03;3.43;;;;;;;;;;5068980;28;22375;-73
2022/04/04 05:14:36;;;;;;;14.20;3.67;;;;;;;;;;5059900;28;20419;-71
2022/04/04 05:17:02;;;;;;;8.53;3.53;;;;;;;;;;5061394;28;20431;-71
2022/04/04 05:19:28;;;;;;;8.40;2.77;;;;;;;;;;5060197;28;20487;-71
2022/04/04 05:21:54;;;;;;;5.30;3.13;;;;;;;;;;5063487;28;20477;-70
2022/04/04 05:24:20;;;;;;;7.83;3.87;;;;;;;;;;5063054;28;20460;-68
2022/04/04 05:26:46;;;;;;;4.73;2.93;;;;;;;;;;5057189;28;20428;-67
2022/04/04 05:29:12;;;;;;;4.83;2.97;;;;;;;;;;5055178;28;20427;-69
2022/04/04 05:31:38;;;;;;;10.37;3.43;;;;;;;;;;5051286;28;20462;-70
2022/04/04 05:34:05;;;;;;;9.90;3.13;;;;;;;;;;5051246;28;20661;-70
2022/04/04 05:36:31;;;;;;;5.27;3.10;;;;;;;;;;5051296;28;20416;-70
2022/04/04 05:38:58;;;;;;;5.73;2.80;;;;;;;;;;5051191;28;20442;-71
2022/04/04 05:41:24;;;;;;;5.67;3.00;;;;;;;;;;5051365;28;20467;-69
2022/04/04 05:43:50;;;;;;;4.80;2.50;;;;;;;;;;5051581;28;20796;-69
2022/04/04 05:46:17;;;;;;;4.10;2.67;;;;;;;;;;5053820;28;20384;-70
2022/04/04 05:48:44;;;;;;;4.10;2.30;;;;;;;;;;5057688;28;20414;-70
2022/04/04 05:51:10;;;;;;;5.53;2.40;;;;;;;;;;5057768;28;20866;-70
2022/04/04 05:53:36;;;;;;;4.43;2.67;;;;;;;;;;5058253;28;20418;-70
2022/04/04 05:56:02;;;;;;;2.97;2.17;;;;;;;;;;5059421;28;20415;-71
2022/04/04 05:58:28;;;;;;;4.77;2.30;;;;;;;;;;5057757;28;20421;-69
2022/04/04 06:00:54;;;;;;;4.83;2.70;;;;;;;;;;5057761;28;20459;-70
2022/04/04 06:03:21;;;;;;;5.20;2.33;;;;;;;;;;5058004;28;20419;-69
2022/04/04 06:05:49;;;;;;;4.23;2.40;;;;;;;;;;5058090;28;20411;-71
2022/04/04 06:08:16;;;;;;;3.93;2.60;;;;;;;;;;5057954;28;20914;-70
2022/04/04 06:10:45;;;;;;;4.87;2.77;;;;;;;;;;5057561;28;20403;-69
2022/04/04 06:13:11;;;;;;;3.60;2.30;;;;;;;;;;5057943;28;20430;-70
2022/04/04 06:15:37;;;;;;;4.50;2.47;;;;;;;;;;5057892;28;20412;-72
2022/04/04 06:18:04;;;;;;;4.30;2.60;;;;;;;;;;5057960;28;20916;-70
2022/04/04 06:20:30;;;;;;;3.57;2.70;;;;;;;;;;5057289;28;20490;-71
2022/04/04 06:22:56;;;;;;;4.77;2.53;;;;;;;;;;5057857;28;20881;-68
2022/04/04 06:25:22;;;;;;;4.70;2.47;;;;;;;;;;5057880;28;20457;-71
2022/04/04 06:27:49;;;;;;;4.43;2.50;;;;;;;;;;5057807;28;20498;-68
2022/04/04 06:30:16;;;;;;;4.17;2.47;;;;;;;;;;5057482;28;20450;-71
2022/04/04 06:32:43;;;;;;;17.97;2.70;;;;;;;;;;5057728;28;20427;-71
2022/04/04 06:35:10;;;;;;;4.10;2.20;;;;;;;;;;5057647;28;20899;-70
2022/04/04 06:37:36;;;;;;;5.03;2.83;;;;;;;;;;5057632;28;20415;-70
2022/04/04 06:40:03;;;;;;;6.33;2.33;;;;;;;;;;5057497;28;20422;-70
2022/04/04 06:42:30;;;;;;;3.67;1.97;;;;;;;;;;5057526;28;20463;-71
2022/04/04 06:44:58;;;;;;;3.23;2.23;;;;;;;;;;5057751;28;20451;-69
2022/04/04 06:47:26;;;;;;;3.80;2.60;;;;;;;;;;5057778;28;20399;-71
2022/04/04 06:49:52;;;;;;;3.70;2.20;;;;;;;;;;5056961;28;20464;-71
2022/04/04 06:52:19;;;;;;;3.30;2.23;;;;;;;;;;5057223;28;20808;-69
2022/04/04 06:54:46;;;;;;;3.40;2.20;;;;;;;;;;5057369;28;20426;-71
2022/04/04 06:57:12;;;;;;;7.43;2.03;;;;;;;;;;5057325;28;20408;-71
2022/04/04 06:59:38;;;;;;;3.93;2.40;;;;;;;;;;5052583;28;20418;-72
2022/04/04 07:02:04;;;;;;;2.87;2.17;;;;;;;;;;5054219;28;20502;-71
2022/04/04 07:04:30;;;;;;;3.53;2.50;;;;;;;;;;5054286;28;20422;-69
2022/04/04 07:06:56;;;;;;;3.60;2.40;;;;;;;;;;5054143;28;20408;-72
2022/04/04 07:09:23;;;;;;;3.60;2.33;;;;;;;;;;5053677;28;20408;-71
2022/04/04 07:11:51;;;;;;;3.50;2.30;;;;;;;;;;5053909;28;20446;-70
2022/04/04 07:14:17;;;;;;;4.60;2.23;;;;;;;;;;5053815;28;20454;-70
2022/04/04 07:16:43;;;;;;;4.80;2.80;;;;;;;;;;5055375;28;20423;-71
2022/04/04 07:19:14;;;;;;;4.20;2.27;;;;;;;;;;5053580;28;20908;-68
2022/04/04 07:21:40;;;;;;;5.20;2.60;;;;;;;;;;5054001;28;20510;-70
2022/04/04 07:24:06;;;;;;;3.27;2.20;;;;;;;;;;5053967;28;20408;-71
2022/04/04 07:26:32;;;;;;;15.53;2.40;;;;;;;;;;5053962;28;20408;-72
2022/04/04 07:28:58;;;;;;;3.30;2.30;;;;;;;;;;5053475;28;20772;-70
2022/04/04 07:31:25;;;;;;;4.43;2.90;;;;;;;;;;5053690;28;20436;-72
2022/04/04 07:33:51;;;;;;;4.23;2.30;;;;;;;;;;5053636;28;20420;-72
2022/04/04 07:36:17;;;;;;;8.13;2.27;;;;;;;;;;5053697;28;20442;-72
2022/04/04 07:38:43;;;;;;;3.33;2.20;;;;;;;;;;5054810;28;20424;-72
2022/04/04 07:41:09;;;;;;;2.83;2.00;;;;;;;;;;5053388;28;20463;-73
2022/04/04 07:43:35;;;;;;;2.30;1.97;;;;;;;;;;5053380;28;20412;-72
2022/04/04 07:46:01;;;;;;;3.47;2.10;;;;;;;;;;5053594;28;20415;-73
2022/04/04 07:48:28;;;;;;;6.07;2.40;;;;;;;;;;5053467;28;20403;-70
2022/04/04 07:50:54;;;;;;;5.03;2.10;;;;;;;;;;5053367;28;20435;-70
2022/04/04 07:53:20;;;;;;;5.10;2.17;;;;;;;;;;5053431;28;20403;-71
2022/04/04 07:55:47;;;;;;;8.23;1.90;;;;;;;;;;5053359;28;20423;-73
2022/04/04 07:58:16;;;;;;;5.13;1.83;;;;;;;;;;5053365;28;20418;-73
2022/04/04 08:00:42;;;;;;;5.47;1.77;;;;;;;;;;5052783;28;20502;-72
2022/04/04 08:03:08;;;;;;;2.10;1.53;;;;;;;;;;5053264;28;20969;-72
2022/04/04 08:05:34;;;;;;;3.83;1.83;;;;;;;;;;5053191;28;20507;-71
2022/04/04 08:08:00;;;;;;;3.03;2.03;;;;;;;;;;5053159;28;20948;-71
2022/04/04 08:10:26;;;;;;;3.20;1.90;;;;;;;;;;5053719;28;20408;-73
2022/04/04 08:12:53;;;;;;;2.90;1.83;;;;;;;;;;5053075;28;20807;-72
2022/04/04 08:15:19;;;;;;;2.63;1.70;;;;;;;;;;5052976;28;20408;-72
2022/04/04 08:17:45;;;;;;;2.50;1.60;;;;;;;;;;5052945;28;20932;-72
2022/04/04 08:20:11;;;;;;;3.13;2.10;;;;;;;;;;5052487;28;20804;-73
2022/04/04 08:22:46;;;;;;;5.33;2.23;;;;;;;;;;5052638;28;20470;-73
2022/04/04 08:25:13;;;;;;;2.63;1.67;;;;;;;;;;5052807;28;20450;-72
2022/04/04 08:27:40;;;;;;;3.90;2.23;;;;;;;;;;5052755;28;20416;-71
2022/04/04 08:30:08;;;;;;;3.97;2.13;;;;;;;;;;5052286;28;20415;-72
2022/04/04 08:32:37;;;;;;;2.47;2.07;;;;;;;;;;5052687;28;20522;-72
2022/04/04 08:35:07;;;;;;;2.57;1.80;;;;;;;;;;5052622;28;20416;-71
2022/04/04 08:37:35;;;;;;;3.10;1.80;;;;;;;;;;5052572;28;20502;-72
2022/04/04 08:40:01;;;;;;;2.47;1.67;;;;;;;;;;5052003;28;20478;-71
2022/04/04 08:42:27;;;;;;;2.47;1.60;;;;;;;;;;5052367;28;20463;-72
2022/04/04 08:45:00;;;;;;;2.73;1.50;;;;;;;;;;5052277;28;20506;-71
2022/04/04 08:47:29;;;;;;;3.13;2.03;;;;;;;;;;5052403;28;20403;-72
2022/04/04 08:49:55;;;;;;;4.60;1.90;;;;;;;;;;5051775;28;20750;-71
2022/04/04 08:52:22;;;;;;;3.10;1.40;;;;;;;;;;5051931;28;20456;-72
2022/04/04 08:54:48;;;;;;;2.70;1.67;;;;;;;;;;5052195;28;20455;-71
2022/04/04 08:57:14;;;;;;;3.00;1.77;;;;;;;;;;5051943;28;20498;-72
2022/04/04 08:59:41;;;;;;;8.70;2.17;;;;;;;;;;5051639;28;21023;-71
2022/04/04 09:02:07;;;;;;;4.13;2.10;;;;;;;;;;5051884;28;20478;-73
2022/04/04 09:04:33;;;;;;;2.53;1.30;;;;;;;;;;5052004;28;20831;-73
2022/04/04 09:07:04;;;;;;;2.97;1.33;;;;;;;;;;5051819;28;20443;-73
2022/04/04 09:09:41;;;;;;;3.50;1.60;;;;;;;;;;5051536;28;20439;-73
2022/04/04 09:12:07;;;;;;;2.03;1.50;;;;;;;;;;5051795;28;20940;-73
2022/04/04 09:14:38;;;;;;;3.50;1.40;;;;;;;;;;5051863;28;20412;-72
2022/04/04 09:17:07;;;;;;;4.53;2.03;;;;;;;;;;5051958;28;20927;-72
2022/04/04 09:19:33;;;;;;;2.10;1.50;;;;;;;;;;5051253;28;20456;-72
2022/04/04 09:22:10;;;;;;;4.70;1.30;;;;;;;;;;5050903;28;20458;-73
2022/04/04 09:24:50;;;;;;;1.80;1.20;;;;;;;;;;5051827;28;20896;-73
2022/04/04 09:27:17;;;;;;;5.03;1.77;;;;;;;;;;5051769;28;20753;-74
2022/04/04 09:29:43;;;;;;;3.77;2.20;;;;;;;;;;5051413;28;20746;-73
2022/04/04 09:32:12;;;;;;;1.80;1.30;;;;;;;;;;5051560;28;20439;-72
2022/04/04 09:34:52;;;;;;;2.67;1.50;;;;;;;;;;5051700;28;20837;-73
2022/04/04 09:37:19;;;;;;;2.00;1.50;;;;;;;;;;5051705;28;20900;-70
2022/04/04 09:39:45;;;;;;;2.53;1.50;;;;;;;;;;5051237;28;20841;-70
2022/04/04 09:42:18;;;;;;;3.97;1.70;;;;;;;;;;5051473;28;20466;-72
2022/04/04 09:45:01;;;;;;;2.30;1.57;;;;;;;;;;5051588;28;20414;-74
2022/04/04 09:47:47;;;;;;;2.20;1.50;;;;;;;;;;5051580;28;20422;-72
2022/04/04 09:50:30;;;;;;;2.20;1.50;;;;;;;;;;5051007;28;20403;-72
2022/04/04 09:52:57;;;;;;;2.93;1.40;;;;;;;;;;5051299;28;20434;-72
2022/04/04 09:55:46;;;;;;;2.20;1.20;;;;;;;;;;5051539;28;20525;-72
2022/04/04 09:58:17;;;;;;;2.97;1.50;;;;;;;;;;5041362;28;20441;-72
2022/04/04 10:00:49;;;;;;;4.53;1.40;;;;;;;;;;5050836;28;20411;-72
2022/04/04 10:03:16;;;;;;;4.27;1.60;;;;;;;;;;5051414;28;20447;-74
2022/04/04 10:05:43;;;;;;;2.20;1.20;;;;;;;;;;5051367;28;20414;-71
2022/04/04 10:08:10;;;;;;;2.67;1.30;;;;;;;;;;5051370;28;20441;-71
2022/04/04 10:10:36;;;;;;;2.43;1.30;;;;;;;;;;5050862;28;20760;-70
2022/04/04 10:13:02;;;;;;;2.30;1.33;;;;;;;;;;5051314;28;20407;-73
2022/04/04 10:15:28;;;;;;;4.87;1.23;;;;;;;;;;5051294;28;20460;-74
2022/04/04 10:17:55;;;;;;;5.60;1.40;;;;;;;;;;5051245;28;20494;-71
2022/04/04 10:20:22;;;;;;;2.00;1.20;;;;;;;;;;5050802;28;20267;-70
2022/04/04 10:22:53;;;;;;;1.70;1.10;;;;;;;;;;5051068;28;20524;-71
2022/04/04 10:25:21;;;;;;;3.87;1.20;;;;;;;;;;5051137;28;20856;-73
2022/04/04 10:27:48;;;;;;;108.97;3.90;;;22.60;36.30;;;;;;5051149;28;20483;-69
2022/04/04 10:30:15;;;;;;;;;;;;;;;;;;5051257;28;20251;-69
2022/04/04 10:32:41;;;;;;;;;;;;;;;;;;5052139;28;20438;-70
2022/04/04 10:35:07;;;;;;;;;;;;;;;;;;5055189;28;19908;-69
2022/04/04 10:37:33;;;;;;;;;;;;;;;;;;5056554;28;19904;-69
2022/04/04 10:39:58;;;;;;;;;;;;;;;;;;5054711;28;20380;-69
2022/04/04 10:42:24;;;;;;;;;;;;;;;;;;5055116;28;20003;-69
2022/04/04 10:44:50;;;;;;;;;;;;;;;;;;5055187;28;20360;-69
2022/04/04 10:47:16;;;;;;;;;;;;;;;;;;5055112;28;19955;-69
2022/04/04 10:49:42;;;;;;;;;;;;;;;;;;5054760;28;19912;-68
2022/04/04 10:52:08;;;;;;;;;;;;;;;;;;5054812;28;19920;-69
2022/04/04 10:54:34;;;;;;;;;;;;;;;;;;5056302;28;19991;-70
2022/04/04 10:57:00;;;;;;;;;;;;;;;;;;5054960;28;19905;-69
2022/04/04 10:59:27;;;;;;;;;;;;;;;;;;5054527;28;19905;-69
2022/04/04 11:01:53;;;;;;;;;;;;;;;;;;5054737;28;19915;-68
2022/04/04 11:04:19;;;;;;;;;;;;;;;;;;5054774;28;19999;-68
2022/04/04 11:09:32;;;;;;;;;;;;;;;;;;5055770;28;19951;-68
2022/04/04 11:11:58;;;;;;;;;;;;;;;;;;5054583;28;20273;-69
2022/04/04 11:14:24;;;;;;;;;;;;;;;;;;5054652;28;19912;-69
2022/04/04 11:16:50;;;;;;;;;;;;;;;;;;5054494;28;19912;-68
2022/04/04 11:19:18;;;;;;;;;;;;;;;;;;5054029;28;19904;-69
2022/04/04 11:21:44;;;;;;;;;;;;;;;;;;5054227;28;19962;-68
2022/04/04 11:24:10;;;;;;;;;;;;;;;;;;5054273;28;19908;-69
2022/04/04 11:26:35;;;;;;;;;;;;;;;;;;5055487;28;19909;-68
2022/04/04 11:29:01;;;;;;;;;;;;;;;;;;5053704;28;20245;-69
2022/04/04 11:31:27;;;;;;;;;;;;;;;;;;5054161;28;19908;-68
2022/04/04 11:33:54;;;;;;;;;;;;;;;;;;5054414;28;19905;-69
2022/04/04 11:36:20;;;;;;;;;;;;;;;;;;5054309;28;19950;-68
2022/04/04 11:38:47;;;;;;;;;;;;;;;;;;5054014;28;19920;-68
2022/04/04 11:41:13;;;;;;;;;;;;;;;;;;5053713;28;19955;-67
2022/04/04 11:43:40;;;;;;;;;;;;;;;;;;5054003;28;19905;-68
2022/04/04 11:46:06;;;;;;;;;;;;;;;;;;5053416;28;19933;-68
2022/04/04 11:48:39;;;;;;;;;;;;;;;;;;5053820;28;19939;-68
2022/04/04 11:51:05;;;;;;;;;;;;;;;;;;5053627;28;20365;-68
2022/04/04 11:53:38;;;;;;;;;;;;;;;;;;5055247;28;19955;-68
2022/04/04 11:56:10;;;;;;;;;;;;;;;;;;5053902;28;19908;-68
2022/04/04 11:58:37;;;;;;;;;;;;;;;;;;5053609;28;19908;-67
2022/04/04 12:01:06;;;;;;;;;;;;;;;;;;5053539;28;19931;-68
2022/04/04 12:03:43;;;;;;;;;;;;;;;;;;5053718;28;20304;-67
2022/04/04 12:06:09;;;;;;;;;;;;;;;;;;5053612;28;19905;-67
2022/04/04 12:08:36;;;;;;;;;;;;;;;;;;5053350;28;20019;-68
2022/04/04 12:11:03;;;;;;;;;;;;;;;;;;5053349;28;19905;-70
2022/04/04 12:13:29;;;;;;;;;;;;;;;;;;5053423;28;19995;-70
2022/04/04 12:15:55;;;;;;;;;;;;;;;;;;5053454;28;19947;-70
2022/04/04 12:18:22;;;;;;;;;;;;;;;;;;5053281;28;19905;-70
2022/04/04 12:20:48;;;;;;;;;;;;;;;;;;5052962;28;19978;-70
2022/04/04 12:25:59;;;;;;;;;;;;;;;;;;5054541;28;20014;-71
2022/04/04 12:28:25;;;;;;;;;;;;;;;;;;5052822;28;20365;-71
2022/04/04 12:30:51;;;;;;;;;;;;;;;;;;5052811;28;19912;-72
2022/04/04 12:33:17;;;;;;;;;;;;;;;;;;5053099;28;19905;-71
2022/04/04 12:35:43;;;;;;;;;;;;;;;;;;5053149;28;20380;-71
2022/04/04 12:38:09;;;;;;;;;;;;;;;;;;5053067;28;19905;-72
2022/04/04 12:40:35;;;;;;;;;;;;;;;;;;5052482;28;20334;-69
2022/04/04 12:43:01;;;;;;;;;;;;;;;;;;5052826;28;20309;-70
2022/04/04 12:45:27;;;;;;;;;;;;;;;;;;5052903;28;20007;-69
2022/04/04 12:47:53;;;;;;;;;;;;;;;;;;5052795;28;19911;-71
2022/04/04 12:50:21;;;;;;;;;;;;;;;;;;5052401;28;19909;-66
2022/04/04 12:52:47;;;;;;;;;;;;;;;;;;5052796;28;20270;-68
2022/04/04 12:55:13;;;;;;;;;;;;;;;;;;5054097;28;19908;-67
2022/04/04 12:57:39;;;;;;;;;;;;;;;;;;5061939;28;19908;-69
2022/04/04 13:00:05;;;;;;;;;;;;;;;;;;5067726;28;19964;-67
2022/04/04 13:02:31;;;;;;;;;;;;;;;;;;5063442;28;19909;-66
2022/04/04 13:04:57;;;;;;;;;;;;;;;;;;5052530;28;20030;-69
2022/04/04 13:07:24;;;;;;;;;;;;;;;;;;5053722;28;19951;-71
2022/04/04 13:09:51;;;;;;;;;;;;;;;;;;5058028;28;20365;-66
2022/04/04 13:12:17;;;;;;;;;;;;;;;;;;5070555;28;19937;-69
2022/04/04 13:14:42;;;;;;;;;;;;;;;;;;5066040;28;20003;-71
2022/04/04 13:17:08;;;;;;;;;;;;;;;;;;5063493;28;20272;-68
2022/04/04 13:19:34;;;;;;;;;;;;;;;;;;5071959;28;20401;-70
2022/04/04 13:22:00;;;;;;;;;;;;;;;;;;5072186;28;19959;-69
2022/04/04 13:24:26;;;;;;;;;;;;;;;;;;5072308;28;19905;-69
2022/04/04 13:26:52;;;;;;;;;;;;;;;;;;5072336;28;19957;-68
2022/04/04 13:29:18;;;;;;;;;;;;;;;;;;5071690;28;19909;-69
2022/04/04 13:31:44;;;;;;;;;;;;;;;;;;5053810;28;19908;-70
2022/04/04 13:34:10;;;;;;;;;;;;;;;;;;5052185;28;19904;-69
2022/04/04 13:36:37;;;;;;;;;;;;;;;;;;5052009;28;20270;-70
2022/04/04 13:39:03;;;;;;;;;;;;;;;;;;5053406;28;20357;-70
2022/04/04 13:41:29;;;;;;;;;;;;;;;;;;5051908;28;19966;-67
2022/04/04 13:43:54;;;;;;;;;;;;;;;;;;5055793;28;19934;-68
2022/04/04 13:46:20;;;;;;;;;;;;;;;;;;5064063;28;19909;-66
2022/04/04 13:48:47;;;;;;;;;;;;;;;;;;5061321;28;20425;-66
2022/04/04 13:51:18;;;;;;;;;;;;;;;;;;5051577;28;19985;-66
2022/04/04 13:53:44;;;;;;;;;;;;;;;;;;5052047;28;19912;-67
2022/04/04 13:56:10;;;;;;;;;;;;;;;;;;5053197;28;19904;-65
2022/04/04 13:58:36;;;;;;;;;;;;;;;;;;5052702;28;19905;-67
2022/04/04 14:01:02;;;;;;;;;;;;;;;;;;5051785;28;19916;-65
2022/04/04 14:03:31;;;;;;;;;;;;;;;;;;5051883;28;19908;-66
2022/04/04 14:05:59;;;;;;;;;;;;;;;;;;5051823;28;19904;-65
2022/04/04 14:08:25;;;;;;;;;;;;;;;;;;5054108;28;19927;-68
2022/04/04 14:10:54;;;;;;;;;;;;;;;;;;5055695;28;20370;-73
2022/04/04 14:13:20;;;;;;;;;;;;;;;;;;5055785;28;19954;-73
2022/04/04 14:15:46;;;;;;;;;;;;;;;;;;5055586;28;19909;-71
2022/04/04 14:18:11;;;;;;;;;;;;;;;;;;5055895;28;20245;-69
2022/04/04 14:20:39;;;;;;;;;;;;;;;;;;5055784;28;20349;-68
2022/04/04 14:23:05;;;;;;;;;;;;;;;;;;5075649;28;20357;-72
2022/04/04 14:25:31;;;;;;;;;;;;;;;;;;5076769;28;19915;-71
2022/04/04 14:27:57;;;;;;;;;;;;;;;;;;5075552;28;19904;-71
2022/04/04 14:30:25;;;;;;;;;;;;;;;;;;5075122;28;19904;-72
2022/04/04 14:32:51;;;;;;;;;;;;;;;;;;5075345;28;20046;-70
2022/04/04 14:35:17;;;;;;;;;;;;;;;;;;5064819;28;19984;-71
2022/04/04 14:37:43;;;;;;;;;;;;;;;;;;5071281;28;19914;-71
2022/04/04 14:40:09;;;;;;;;;;;;;;;;;;5066364;28;20011;-72
2022/04/04 14:42:36;;;;;;;;;;;;;;;;;;5068606;28;20269;-71
2022/04/04 14:45:02;;;;;;;;;;;;;;;;;;5075231;28;19904;-71
2022/04/04 14:47:28;;;;;;;;;;;;;;;;;;5075016;28;19999;-71
2022/04/04 14:49:54;;;;;;;;;;;;;;;;;;5074623;28;19911;-71
2022/04/04 14:52:21;;;;;;;;;;;;;;;;;;5074809;28;19913;-71
2022/04/04 14:54:47;;;;;;;;;;;;;;;;;;5072702;28;19905;-71
2022/04/04 14:57:13;;;;;;;;;;;;;;;;;;5055004;28;19947;-71
2022/04/04 14:59:39;;;;;;;;;;;;;;;;;;5054397;28;19909;-70
2022/04/04 15:02:05;;;;;;;;;;;;;;;;;;5054852;28;19934;-70
2022/04/04 15:04:31;;;;;;;;;;;;;;;;;;5056750;28;21265;-70
2022/04/04 15:06:57;;;;;;;;;;;;;;;;;;5062715;28;19915;-73
2022/04/04 15:09:23;;;;;;;;;;;;;;;;;;5056472;28;19999;-72
2022/04/04 15:11:49;;;;;;;;;;;;;;;;;;5054859;28;20342;-69
2022/04/04 15:14:15;;;;;;;;;;;;;;;;;;5054352;28;19915;-71
2022/04/04 15:16:41;;;;;;;;;;;;;;;;;;5053377;28;19912;-69
2022/04/04 15:19:06;;;;;;;;;;;;;;;;;;5053276;28;20276;-70
2022/04/04 15:21:34;;;;;;;;;;;;;;;;;;5054243;28;19913;-65